createdAt,value
2022-10-01T00:00:05.115Z,5.57
2022-10-01T00:02:37.983Z,5.56
2022-10-01T00:05:06.457Z,5.58
2022-10-01T00:07:40.804Z,5.62
2022-10-01T00:10:08.589Z,5.70
2022-10-01T00:12:35.043Z,5.76
2022-10-01T00:15:05.922Z,5.75
2022-10-01T00:17:33.745Z,5.46
2022-10-01T00:20:00.320Z,5.34
2022-10-01T00:22:26.729Z,5.29
2022-10-01T00:24:53.116Z,5.42
2022-10-01T00:27:19.721Z,5.52
2022-10-01T00:29:46.192Z,5.44
2022-10-01T00:32:12.601Z,5.43
2022-10-01T00:34:39.085Z,5.43
2022-10-01T00:37:05.996Z,5.46
2022-10-01T00:39:32.373Z,5.40
2022-10-01T00:41:58.771Z,5.36
2022-10-01T00:44:36.534Z,5.47
2022-10-01T00:47:08.413Z,5.53
2022-10-01T00:49:37.841Z,5.62
2022-10-01T00:52:08.798Z,5.66
2022-10-01T00:54:43.324Z,5.65
2022-10-01T00:57:11.429Z,5.70
2022-10-01T00:59:37.922Z,5.76
2022-10-01T01:02:04.644Z,5.78
2022-10-01T01:04:32.478Z,5.87
2022-10-01T01:07:01.885Z,5.88
2022-10-01T01:09:32.610Z,5.93
2022-10-01T01:12:24.645Z,6.04
2022-10-01T01:14:59.732Z,6.21
2022-10-01T01:17:39.871Z,6.34
2022-10-01T01:20:26.329Z,6.39
2022-10-01T01:23:16.947Z,6.46
2022-10-01T01:26:25.451Z,6.48
2022-10-01T01:28:59.366Z,6.56
2022-10-01T01:31:32.923Z,6.60
2022-10-01T01:34:00.827Z,6.57
2022-10-01T01:36:32.396Z,6.55
2022-10-01T01:39:07.005Z,6.67
2022-10-01T01:41:38.442Z,6.74
2022-10-01T01:44:09.766Z,6.87
2022-10-01T01:46:40.222Z,6.98
2022-10-01T01:49:07.881Z,7.09
2022-10-01T01:51:42.032Z,7.11
2022-10-01T01:54:08.916Z,7.03
2022-10-01T01:56:35.712Z,7.03
2022-10-01T01:59:03.501Z,7.01
2022-10-01T02:01:41.824Z,7.01
2022-10-01T02:04:12.956Z,7.02
2022-10-01T02:06:42.743Z,6.94
2022-10-01T02:09:30.993Z,6.95
2022-10-01T02:12:26.508Z,6.96
2022-10-01T02:14:58.477Z,6.98
2022-10-01T02:17:46.441Z,7.06
2022-10-01T02:20:35.276Z,7.08
2022-10-01T02:23:34.503Z,7.04
2022-10-01T02:26:10.888Z,7.12
2022-10-01T02:28:40.603Z,7.06
2022-10-01T02:31:09.121Z,7.11
2022-10-01T02:33:38.277Z,7.03
2022-10-01T02:36:08.278Z,7.05
2022-10-01T02:38:38.337Z,7.06
2022-10-01T02:41:07.789Z,7.05
2022-10-01T02:43:42.712Z,7.05
2022-10-01T02:46:48.245Z,7.08
2022-10-01T02:49:15.059Z,7.01
2022-10-01T02:52:11.629Z,6.97
2022-10-01T02:54:47.083Z,6.96
2022-10-01T02:57:27.240Z,6.90
2022-10-01T02:59:57.623Z,6.95
2022-10-01T03:02:27.482Z,6.94
2022-10-01T03:04:56.131Z,6.97
2022-10-01T03:07:22.642Z,6.93
2022-10-01T03:09:49.661Z,6.98
2022-10-01T03:12:19.170Z,7.00
2022-10-01T03:14:46.437Z,7.12
2022-10-01T03:17:14.170Z,7.18
2022-10-01T03:19:41.220Z,7.16
2022-10-01T03:22:08.519Z,7.11
2022-10-01T03:24:35.331Z,7.13
2022-10-01T03:27:01.740Z,7.12
2022-10-01T03:29:28.407Z,7.14
2022-10-01T03:31:55.148Z,7.17
2022-10-01T03:34:21.710Z,7.17
2022-10-01T03:36:48.429Z,7.22
2022-10-01T03:39:15.876Z,7.23
2022-10-01T03:41:42.295Z,7.21
2022-10-01T03:44:08.751Z,7.18
2022-10-01T03:46:35.169Z,7.18
2022-10-01T03:49:01.745Z,7.14
2022-10-01T03:51:29.221Z,7.24
2022-10-01T03:53:56.751Z,7.35
2022-10-01T03:56:24.265Z,7.49
2022-10-01T03:58:51.076Z,7.56
2022-10-01T04:01:17.640Z,7.62
2022-10-01T04:03:44.332Z,7.65
2022-10-01T04:06:11.480Z,7.72
2022-10-01T04:08:38.785Z,7.70
2022-10-01T04:11:06.869Z,7.72
2022-10-01T04:13:34.549Z,7.75
2022-10-01T04:16:05.416Z,7.75
2022-10-01T04:18:32.580Z,7.77
2022-10-01T04:20:59.130Z,7.72
2022-10-01T04:23:26.001Z,7.85
2022-10-01T04:25:52.671Z,7.81
2022-10-01T04:28:19.429Z,7.85
2022-10-01T04:30:46.528Z,7.81
2022-10-01T04:33:15.337Z,7.73
2022-10-01T04:35:43.335Z,7.73
2022-10-01T04:38:16.707Z,7.84
2022-10-01T04:40:43.548Z,7.80
2022-10-01T04:43:12.437Z,7.75
2022-10-01T04:45:39.197Z,7.80
2022-10-01T04:48:05.776Z,7.79
2022-10-01T04:50:32.274Z,7.80
2022-10-01T04:52:58.748Z,7.90
2022-10-01T04:55:25.220Z,7.92
2022-10-01T04:57:51.761Z,7.89
2022-10-01T05:00:21.770Z,7.94
2022-10-01T05:02:49.952Z,7.92
2022-10-01T05:05:18.697Z,7.94
2022-10-01T05:07:45.812Z,8.00
2022-10-01T05:10:17.642Z,8.14
2022-10-01T05:12:45.519Z,8.25
2022-10-01T05:15:12.482Z,8.32
2022-10-01T05:17:38.884Z,8.42
2022-10-01T05:20:07.617Z,8.43
2022-10-01T05:22:34.225Z,8.48
2022-10-01T05:25:00.756Z,8.62
2022-10-01T05:27:27.864Z,8.68
2022-10-01T05:29:54.324Z,8.69
2022-10-01T05:32:20.737Z,8.66
2022-10-01T05:34:51.268Z,8.78
2022-10-01T05:37:19.945Z,8.74
2022-10-01T05:39:46.505Z,8.74
2022-10-01T05:42:13.039Z,8.78
2022-10-01T05:44:40.836Z,8.81
2022-10-01T05:47:07.319Z,8.80
2022-10-01T05:49:33.912Z,8.78
2022-10-01T05:52:00.957Z,8.70
2022-10-01T05:54:29.473Z,8.68
2022-10-01T05:56:56.913Z,8.60
2022-10-01T05:59:25.537Z,8.56
2022-10-01T06:01:53.880Z,8.64
2022-10-01T06:04:20.566Z,8.58
2022-10-01T06:06:46.971Z,8.51
2022-10-01T06:09:13.918Z,8.47
2022-10-01T06:11:40.599Z,8.46
2022-10-01T06:14:07.287Z,8.35
2022-10-01T06:16:33.780Z,8.33
2022-10-01T06:19:00.340Z,8.34
2022-10-01T06:21:27.692Z,8.36
2022-10-01T06:23:54.658Z,8.39
2022-10-01T06:26:21.745Z,8.42
2022-10-01T06:28:52.571Z,8.39
2022-10-01T06:31:19.634Z,8.45
2022-10-01T06:33:46.100Z,8.46
2022-10-01T06:36:12.648Z,8.52
2022-10-01T06:38:39.139Z,8.59
2022-10-01T06:41:05.813Z,8.62
2022-10-01T06:43:33.064Z,8.63
2022-10-01T06:46:03.844Z,8.73
2022-10-01T06:48:31.330Z,8.79
2022-10-01T06:50:58.779Z,8.77
2022-10-01T06:53:27.491Z,8.77
2022-10-01T06:55:54.506Z,8.85
2022-10-01T06:58:22.968Z,8.79
2022-10-01T07:00:50.546Z,8.91
2022-10-01T07:03:21.895Z,8.92
2022-10-01T07:05:49.313Z,8.77
2022-10-01T07:08:16.572Z,8.82
2022-10-01T07:10:44.174Z,8.85
2022-10-01T07:13:20.170Z,8.93
2022-10-01T07:15:47.148Z,8.92
2022-10-01T07:18:13.942Z,8.85
2022-10-01T07:20:41.262Z,8.89
2022-10-01T07:23:11.293Z,8.76
2022-10-01T07:25:39.632Z,8.79
2022-10-01T07:28:08.515Z,8.87
2022-10-01T07:30:35.124Z,8.93
2022-10-01T07:33:01.508Z,8.91
2022-10-01T07:35:29.134Z,9.05
2022-10-01T07:37:55.532Z,9.03
2022-10-01T07:40:22.121Z,9.16
2022-10-01T07:42:56.097Z,9.21
2022-10-01T07:45:24.193Z,9.24
2022-10-01T07:47:55.632Z,9.19
2022-10-01T07:50:22.709Z,9.19
2022-10-01T07:52:53.774Z,9.15
2022-10-01T07:55:21.493Z,9.13
2022-10-01T07:57:55.627Z,9.24
2022-10-01T08:00:23.681Z,9.31
2022-10-01T08:02:51.833Z,9.25
2022-10-01T08:05:20.231Z,9.29
2022-10-01T08:07:47.580Z,9.28
2022-10-01T08:10:15.349Z,9.26
2022-10-01T08:12:44.537Z,9.29
2022-10-01T08:15:12.755Z,9.37
2022-10-01T08:17:39.400Z,9.24
2022-10-01T08:20:07.863Z,9.21
2022-10-01T08:22:36.582Z,9.16
2022-10-01T08:25:06.881Z,9.03
2022-10-01T08:27:33.326Z,9.11
2022-10-01T08:29:59.772Z,9.12
2022-10-01T08:32:27.966Z,9.05
2022-10-01T08:34:59.873Z,9.06
2022-10-01T08:37:28.285Z,9.04
2022-10-01T08:39:56.134Z,8.97
2022-10-01T08:42:54.044Z,9.04
2022-10-01T08:45:26.062Z,9.16
2022-10-01T08:48:03.874Z,9.06
2022-10-01T08:50:53.543Z,9.05
2022-10-01T08:53:31.656Z,9.17
2022-10-01T08:56:00.297Z,9.19
2022-10-01T08:58:35.044Z,9.33
2022-10-01T09:01:01.513Z,9.26
2022-10-01T09:03:31.562Z,9.31
2022-10-01T09:06:17.014Z,9.43
2022-10-01T09:09:05.527Z,9.57
2022-10-01T09:11:38.388Z,9.55
2022-10-01T09:14:19.831Z,9.54
2022-10-01T09:17:06.241Z,9.51
2022-10-01T09:19:40.924Z,9.53
2022-10-01T09:22:40.405Z,9.62
2022-10-01T09:25:09.758Z,9.60
2022-10-01T09:27:38.340Z,9.57
2022-10-01T09:30:18.240Z,9.59
2022-10-01T09:32:56.004Z,9.66
2022-10-01T09:35:47.068Z,9.73
2022-10-01T09:38:28.580Z,9.83
2022-10-01T09:40:59.197Z,9.91
2022-10-01T09:43:31.677Z,9.88
2022-10-01T09:45:58.667Z,10.01
2022-10-01T09:48:47.600Z,10.02
2022-10-01T09:51:18.174Z,9.95
2022-10-01T09:54:03.357Z,10.07
2022-10-01T09:56:37.158Z,10.21
2022-10-01T09:59:10.674Z,10.27
2022-10-01T10:02:15.315Z,10.18
2022-10-01T10:04:41.967Z,10.02
2022-10-01T10:07:16.116Z,10.13
2022-10-01T10:09:43.198Z,10.27
2022-10-01T10:12:26.490Z,10.39
2022-10-01T10:14:55.838Z,10.43
2022-10-01T10:17:23.029Z,10.42
2022-10-01T10:19:52.325Z,10.30
2022-10-01T10:22:24.924Z,10.36
2022-10-01T10:24:53.360Z,10.40
2022-10-01T10:27:30.066Z,10.53
2022-10-01T10:30:13.841Z,10.68
2022-10-01T10:32:41.416Z,10.72
2022-10-01T10:35:22.679Z,10.78
2022-10-01T10:37:52.069Z,10.70
2022-10-01T10:40:39.797Z,10.72
2022-10-01T10:43:06.405Z,10.84
2022-10-01T10:45:38.622Z,10.79
2022-10-01T10:48:11.653Z,10.89
2022-10-01T10:50:40.906Z,11.07
2022-10-01T10:53:25.049Z,11.27
2022-10-01T10:56:06.338Z,11.47
2022-10-01T10:58:39.681Z,11.57
2022-10-01T11:01:11.870Z,11.64
2022-10-01T11:03:46.350Z,11.55
2022-10-01T11:06:15.664Z,11.53
2022-10-01T11:08:43.326Z,11.57
2022-10-01T11:11:22.364Z,11.45
2022-10-01T11:14:35.227Z,11.27
2022-10-01T11:17:18.118Z,11.24
2022-10-01T11:20:00.861Z,11.15
2022-10-01T11:22:27.263Z,11.19
2022-10-01T11:25:00.928Z,11.24
2022-10-01T11:27:42.978Z,11.18
2022-10-01T11:30:18.761Z,11.17
2022-10-01T11:32:49.769Z,11.16
2022-10-01T11:35:35.028Z,11.09
2022-10-01T11:38:24.522Z,10.96
2022-10-01T11:41:03.817Z,11.00
2022-10-01T11:43:39.067Z,11.10
2022-10-01T11:46:14.683Z,11.04
2022-10-01T11:48:46.492Z,11.00
2022-10-01T11:51:22.783Z,11.03
2022-10-01T11:53:53.988Z,11.03
2022-10-01T11:57:04.190Z,11.09
2022-10-01T11:59:39.832Z,11.00
2022-10-01T12:02:37.363Z,11.13
2022-10-01T12:05:10.283Z,11.18
2022-10-01T12:07:59.107Z,11.37
2022-10-01T12:10:40.576Z,11.61
2022-10-01T12:13:22.670Z,11.82
2022-10-01T12:15:52.685Z,11.69
2022-10-01T12:18:39.225Z,11.86
2022-10-01T12:21:33.324Z,11.95
2022-10-01T12:24:35.958Z,12.00
2022-10-01T12:27:27.481Z,12.04
2022-10-01T12:30:04.248Z,12.25
2022-10-01T12:32:39.568Z,12.30
2022-10-01T12:35:40.120Z,12.44
2022-10-01T12:38:13.877Z,12.57
2022-10-01T12:40:47.940Z,12.57
2022-10-01T12:43:51.144Z,12.56
2022-10-01T12:46:37.667Z,12.67
2022-10-01T12:49:22.143Z,12.77
2022-10-01T12:52:01.698Z,12.78
2022-10-01T12:54:46.420Z,12.82
2022-10-01T12:57:22.881Z,12.94
2022-10-01T13:00:03.689Z,12.96
2022-10-01T13:03:04.009Z,13.14
2022-10-01T13:05:46.736Z,13.27
2022-10-01T13:08:15.988Z,13.21
2022-10-01T13:10:56.941Z,13.35
2022-10-01T13:13:32.825Z,13.57
2022-10-01T13:16:12.761Z,13.62
2022-10-01T13:18:56.531Z,13.69
2022-10-01T13:21:57.368Z,13.77
2022-10-01T13:24:28.557Z,13.95
2022-10-01T13:27:09.932Z,13.97
2022-10-01T13:29:46.271Z,13.96
2022-10-01T13:32:37.238Z,13.82
2022-10-01T13:35:32.912Z,13.95
2022-10-01T13:38:13.576Z,13.83
2022-10-01T13:40:40.573Z,13.89
2022-10-01T13:43:12.693Z,13.91
2022-10-01T13:45:39.013Z,13.83
2022-10-01T13:48:11.635Z,13.85
2022-10-01T13:50:55.182Z,14.07
2022-10-01T13:53:29.613Z,14.25
2022-10-01T13:55:56.957Z,14.25
2022-10-01T13:58:33.674Z,14.42
2022-10-01T14:01:04.145Z,14.60
2022-10-01T14:03:49.668Z,14.66
2022-10-01T14:06:32.766Z,14.42
2022-10-01T14:09:05.348Z,14.34
2022-10-01T14:11:54.424Z,14.25
2022-10-01T14:14:44.304Z,14.14
2022-10-01T14:17:11.536Z,14.21
2022-10-01T14:19:46.760Z,14.21
2022-10-01T14:22:18.434Z,14.19
2022-10-01T14:25:04.524Z,14.22
2022-10-01T14:27:46.904Z,14.29
2022-10-01T14:30:17.440Z,14.33
2022-10-01T14:33:03.805Z,14.25
2022-10-01T14:35:33.048Z,14.22
2022-10-01T14:38:01.447Z,14.27
2022-10-01T14:40:38.046Z,14.40
2022-10-01T14:43:17.807Z,14.30
2022-10-01T14:46:01.686Z,14.42
2022-10-01T14:48:30.708Z,14.24
2022-10-01T14:51:01.600Z,14.08
2022-10-01T14:53:32.377Z,13.98
2022-10-01T14:56:05.240Z,13.90
2022-10-01T14:58:44.435Z,13.91
2022-10-01T15:01:21.667Z,13.85
2022-10-01T15:03:49.313Z,13.90
2022-10-01T15:06:20.234Z,13.97
2022-10-01T15:08:49.446Z,13.95
2022-10-01T15:11:23.156Z,13.90
2022-10-01T15:13:51.827Z,14.17
2022-10-01T15:16:24.028Z,14.17
2022-10-01T15:18:56.445Z,14.10
2022-10-01T15:21:38.304Z,14.03
2022-10-01T15:24:11.864Z,13.95
2022-10-01T15:26:38.388Z,14.09
2022-10-01T15:29:13.679Z,13.98
2022-10-01T15:31:41.187Z,13.88
2022-10-01T15:34:12.117Z,13.96
2022-10-01T15:36:40.358Z,13.72
2022-10-01T15:39:30.765Z,13.84
2022-10-01T15:41:58.711Z,13.74
2022-10-01T15:44:39.874Z,13.81
2022-10-01T15:47:30.540Z,13.80
2022-10-01T15:50:12.278Z,13.71
2022-10-01T15:52:51.288Z,13.51
2022-10-01T15:55:28.916Z,13.61
2022-10-01T15:58:01.965Z,13.43
2022-10-01T16:00:38.803Z,13.48
2022-10-01T16:03:05.265Z,13.55
2022-10-01T16:05:37.057Z,13.55
2022-10-01T16:08:03.769Z,13.53
2022-10-01T16:10:40.637Z,13.54
2022-10-01T16:13:46.605Z,13.59
2022-10-01T16:16:13.074Z,13.60
2022-10-01T16:18:40.342Z,13.61
2022-10-01T16:21:09.760Z,13.54
2022-10-01T16:23:49.185Z,13.45
2022-10-01T16:26:33.668Z,13.49
2022-10-01T16:29:04.173Z,13.33
2022-10-01T16:31:30.896Z,13.35
2022-10-01T16:33:57.478Z,13.42
2022-10-01T16:36:26.133Z,13.48
2022-10-01T16:38:52.524Z,13.17
2022-10-01T16:41:25.147Z,13.14
2022-10-01T16:43:54.233Z,13.12
2022-10-01T16:46:20.694Z,13.11
2022-10-01T16:48:49.465Z,12.97
2022-10-01T16:51:15.933Z,12.97
2022-10-01T16:53:45.809Z,13.03
2022-10-01T16:56:12.524Z,12.95
2022-10-01T16:58:39.055Z,12.85
2022-10-01T17:01:09.950Z,12.83
2022-10-01T17:03:36.582Z,12.95
2022-10-01T17:06:03.531Z,12.85
2022-10-01T17:08:30.012Z,12.88
2022-10-01T17:11:00.479Z,12.87
2022-10-01T17:13:34.768Z,12.82
2022-10-01T17:16:01.670Z,12.84
2022-10-01T17:18:28.369Z,12.92
2022-10-01T17:20:56.037Z,12.95
2022-10-01T17:23:22.753Z,12.90
2022-10-01T17:25:49.496Z,12.87
2022-10-01T17:28:18.742Z,12.86
2022-10-01T17:30:47.889Z,12.82
2022-10-01T17:33:15.860Z,12.88
2022-10-01T17:35:44.740Z,12.88
2022-10-01T17:38:12.509Z,12.87
2022-10-01T17:40:40.654Z,12.86
2022-10-01T17:43:07.521Z,12.79
2022-10-01T17:45:33.955Z,12.79
2022-10-01T17:48:01.058Z,12.77
2022-10-01T17:50:27.858Z,12.75
2022-10-01T17:52:54.270Z,12.72
2022-10-01T17:55:23.514Z,12.76
2022-10-01T17:57:50.037Z,12.66
2022-10-01T18:00:16.880Z,12.77
2022-10-01T18:02:43.670Z,12.79
2022-10-01T18:05:14.268Z,12.85
2022-10-01T18:07:41.924Z,12.83
2022-10-01T18:10:11.717Z,12.74
2022-10-01T18:12:38.286Z,12.69
2022-10-01T18:15:05.500Z,12.54
2022-10-01T18:17:33.172Z,12.56
2022-10-01T18:19:59.846Z,12.63
2022-10-01T18:22:27.220Z,12.68
2022-10-01T18:24:54.125Z,12.74
2022-10-01T18:27:20.575Z,12.64
2022-10-01T18:29:46.986Z,12.36
2022-10-01T18:32:20.828Z,12.04
2022-10-01T18:34:54.849Z,12.02
2022-10-01T18:37:43.797Z,11.96
2022-10-01T18:40:29.013Z,11.95
2022-10-01T18:43:08.400Z,11.96
2022-10-01T18:46:12.726Z,11.78
2022-10-01T18:49:14.364Z,11.73
2022-10-01T18:51:51.809Z,11.73
2022-10-01T18:54:23.872Z,11.63
2022-10-01T18:56:56.705Z,11.60
2022-10-01T18:59:43.192Z,11.58
2022-10-01T19:02:32.916Z,11.57
2022-10-01T19:05:24.824Z,11.65
2022-10-01T19:07:51.153Z,11.70
2022-10-01T19:10:35.951Z,11.66
2022-10-01T19:13:13.641Z,11.64
2022-10-01T19:16:00.478Z,11.53
2022-10-01T19:19:01.492Z,11.49
2022-10-01T19:21:52.534Z,11.50
2022-10-01T19:24:40.184Z,11.44
2022-10-01T19:27:30.685Z,11.43
2022-10-01T19:30:06.117Z,11.48
2022-10-01T19:32:41.448Z,11.62
2022-10-01T19:35:23.473Z,11.56
2022-10-01T19:38:01.232Z,11.54
2022-10-01T19:40:30.725Z,11.50
2022-10-01T19:43:15.668Z,11.52
2022-10-01T19:45:57.349Z,11.56
2022-10-01T19:48:44.017Z,11.62
2022-10-01T19:51:13.124Z,11.63
2022-10-01T19:53:45.555Z,11.67
2022-10-01T19:56:33.190Z,11.65
2022-10-01T19:59:19.729Z,11.69
2022-10-01T20:01:55.240Z,11.71
2022-10-01T20:04:31.749Z,11.75
2022-10-01T20:07:05.075Z,11.66
2022-10-01T20:09:44.486Z,11.74
2022-10-01T20:12:41.126Z,11.81
2022-10-01T20:15:11.580Z,11.88
2022-10-01T20:18:19.249Z,11.97
2022-10-01T20:21:04.189Z,11.98
2022-10-01T20:23:42.556Z,12.00
2022-10-01T20:26:31.292Z,12.10
2022-10-01T20:29:25.442Z,12.08
2022-10-01T20:32:01.611Z,12.16
2022-10-01T20:34:33.747Z,12.19
2022-10-01T20:37:38.274Z,12.24
2022-10-01T20:40:18.667Z,12.39
2022-10-01T20:42:49.790Z,12.46
2022-10-01T20:45:28.518Z,12.52
2022-10-01T20:48:10.165Z,12.52
2022-10-01T20:50:44.577Z,12.48
2022-10-01T20:53:30.105Z,12.45
2022-10-01T20:56:02.908Z,12.50
2022-10-01T20:58:30.987Z,12.56
2022-10-01T21:01:10.061Z,12.63
2022-10-01T21:03:41.749Z,12.68
2022-10-01T21:06:14.364Z,12.68
2022-10-01T21:08:43.630Z,12.63
2022-10-01T21:11:21.804Z,12.71
2022-10-01T21:13:58.774Z,12.76
2022-10-01T21:16:46.543Z,12.78
2022-10-01T21:19:36.169Z,12.83
2022-10-01T21:22:42.792Z,12.78
2022-10-01T21:25:35.635Z,12.75
2022-10-01T21:28:18.498Z,12.68
2022-10-01T21:30:57.136Z,12.74
2022-10-01T21:33:34.767Z,12.48
2022-10-01T21:36:10.853Z,12.42
2022-10-01T21:38:48.970Z,12.23
2022-10-01T21:41:34.378Z,12.30
2022-10-01T21:44:15.245Z,12.30
2022-10-01T21:46:54.632Z,12.16
2022-10-01T21:49:33.263Z,12.06
2022-10-01T21:52:27.209Z,12.09
2022-10-01T21:55:12.084Z,12.05
2022-10-01T21:58:10.509Z,12.09
2022-10-01T22:00:37.029Z,12.04
2022-10-01T22:03:28.005Z,11.98
2022-10-01T22:06:12.121Z,11.99
2022-10-01T22:08:47.565Z,12.03
2022-10-01T22:11:18.688Z,11.99
2022-10-01T22:13:58.337Z,11.96
2022-10-01T22:16:28.993Z,11.99
2022-10-01T22:18:58.057Z,12.00
2022-10-01T22:21:31.240Z,12.11
2022-10-01T22:24:08.448Z,12.12
2022-10-01T22:26:39.733Z,12.13
2022-10-01T22:29:12.162Z,12.10
2022-10-01T22:31:39.839Z,12.12
2022-10-01T22:34:12.228Z,12.12
2022-10-01T22:37:12.577Z,12.06
2022-10-01T22:40:03.422Z,12.15
2022-10-01T22:42:38.236Z,12.03
2022-10-01T22:45:16.400Z,12.00
2022-10-01T22:48:16.480Z,11.99
2022-10-01T22:50:49.135Z,11.90
2022-10-01T22:53:32.045Z,11.84
2022-10-01T22:55:58.749Z,11.73
2022-10-01T22:58:52.139Z,11.79
2022-10-01T23:01:37.104Z,11.82
2022-10-01T23:04:10.397Z,11.71
2022-10-01T23:07:14.096Z,11.67
2022-10-01T23:10:05.351Z,11.66
2022-10-01T23:12:40.801Z,11.65
2022-10-01T23:15:29.045Z,11.66
2022-10-01T23:18:20.718Z,11.71
2022-10-01T23:21:18.266Z,11.63
2022-10-01T23:23:56.193Z,11.61
2022-10-01T23:26:28.343Z,11.70
2022-10-01T23:29:01.054Z,11.71
2022-10-01T23:31:40.443Z,11.74
2022-10-01T23:34:24.754Z,11.68
2022-10-01T23:37:06.518Z,11.66
2022-10-01T23:39:32.955Z,11.67
2022-10-01T23:42:08.744Z,11.66
2022-10-01T23:44:51.934Z,11.65
2022-10-01T23:47:30.901Z,11.66
2022-10-01T23:50:00.338Z,11.77
2022-10-01T23:52:38.833Z,11.81
2022-10-01T23:55:33.762Z,11.71
2022-10-01T23:58:03.384Z,11.77
